Time;durP1;ratioP1;P1;durP2;ratioP2;P2;SDS_P1;SDS_P2;PMS_P1;PMS_P2;Temp;Humidity;BMP_temperature;BMP_pressure;BME280_temperature;BME280_humidity;BME280_pressure;Samples;Min_cycle;Max_cycle;Signal;HPM_P1;HPM_P2
2022/07/08 00:01:25;;;;;;;5.37;1.87;;;;;;;;;;5077386;28;20653;-79
2022/07/08 00:03:51;;;;;;;4.23;1.63;;;;;;;;;;5076925;28;20290;-79
2022/07/08 00:06:17;;;;;;;3.63;1.40;;;;;;;;;;5077147;28;20325;-79
2022/07/08 00:08:44;;;;;;;4.10;1.70;;;;;;;;;;5092398;28;20183;-79
2022/07/08 00:11:10;;;;;;;4.67;1.57;;;;;;;;;;5092327;28;20257;-79
2022/07/08 00:13:37;;;;;;;2.03;1.30;;;;;;;;;;5091959;28;20212;-79
2022/07/08 00:16:03;;;;;;;2.73;1.50;;;;;;;;;;5075548;28;20176;-79
2022/07/08 00:18:29;;;;;;;3.90;1.70;;;;;;;;;;5075543;28;20278;-79
2022/07/08 00:20:55;;;;;;;4.37;1.80;;;;;;;;;;5092304;28;20183;-79
2022/07/08 00:23:21;;;;;;;3.47;1.67;;;;;;;;;;5091918;28;20569;-79
2022/07/08 00:25:47;;;;;;;3.37;1.60;;;;;;;;;;5092312;28;20179;-79
2022/07/08 00:28:13;;;;;;;3.47;1.50;;;;;;;;;;5075488;28;20176;-79
2022/07/08 00:30:39;;;;;;;3.57;1.40;;;;;;;;;;5075180;28;20208;-79
2022/07/08 00:33:05;;;;;;;4.70;1.60;;;;;;;;;;5091969;28;20196;-79
2022/07/08 00:35:31;;;;;;;6.90;1.50;;;;;;;;;;5075202;28;20183;-79
2022/07/08 00:37:57;;;;;;;4.77;1.70;;;;;;;;;;5075194;28;20172;-79
2022/07/08 00:40:23;;;;;;;7.00;1.70;;;;;;;;;;5075273;28;20180;-79
2022/07/08 00:42:49;;;;;;;2.83;1.30;;;;;;;;;;5091503;28;20237;-79
2022/07/08 00:45:16;;;;;;;2.83;1.37;;;;;;;;;;5093239;28;20179;-79
2022/07/08 00:47:42;;;;;;;5.57;1.60;;;;;;;;;;5091707;28;20242;-79
2022/07/08 00:50:09;;;;;;;4.63;1.90;;;;;;;;;;5074961;28;20271;-79
2022/07/08 00:52:35;;;;;;;3.03;1.73;;;;;;;;;;5091362;28;20172;-79
2022/07/08 00:55:02;;;;;;;3.17;1.57;;;;;;;;;;5092893;28;20168;-79
2022/07/08 00:57:28;;;;;;;3.70;1.47;;;;;;;;;;5091621;28;20176;-79
2022/07/08 00:59:55;;;;;;;4.27;1.60;;;;;;;;;;5074652;28;20263;-79
2022/07/08 01:02:21;;;;;;;3.47;1.60;;;;;;;;;;5074639;28;20184;-79
2022/07/08 01:04:47;;;;;;;2.67;1.60;;;;;;;;;;5091463;28;20192;-79
2022/07/08 01:07:13;;;;;;;9.50;1.50;;;;;;;;;;5091288;28;20681;-79
2022/07/08 01:09:40;;;;;;;4.83;1.83;;;;;;;;;;5091324;28;20263;-79
2022/07/08 01:12:06;;;;;;;3.10;1.30;;;;;;;;;;5091285;28;20273;-79
2022/07/08 01:14:32;;;;;;;6.67;1.60;;;;;;;;;;5090273;28;20223;-79
2022/07/08 01:16:58;;;;;;;5.27;1.80;;;;;;;;;;5074629;28;20179;-79
2022/07/08 01:19:24;;;;;;;4.07;1.50;;;;;;;;;;5091385;28;20172;-79
2022/07/08 01:21:50;;;;;;;4.80;1.53;;;;;;;;;;5074104;28;20199;-79
2022/07/08 01:24:17;;;;;;;4.90;1.70;;;;;;;;;;5074531;28;20230;-79
2022/07/08 01:26:43;;;;;;;2.53;1.40;;;;;;;;;;5074582;28;20195;-79
2022/07/08 01:29:09;;;;;;;3.93;1.40;;;;;;;;;;5074509;28;20180;-79
2022/07/08 01:31:35;;;;;;;4.70;1.50;;;;;;;;;;5074315;28;20218;-79
2022/07/08 01:34:01;;;;;;;4.90;1.80;;;;;;;;;;5090945;28;20282;-79
2022/07/08 01:36:27;;;;;;;4.80;1.60;;;;;;;;;;5090952;28;20549;-79
2022/07/08 01:38:53;;;;;;;3.63;1.50;;;;;;;;;;5074653;28;20181;-79
2022/07/08 01:41:19;;;;;;;5.50;1.93;;;;;;;;;;5091206;28;20184;-79
2022/07/08 01:43:44;;;;;;;4.87;1.60;;;;;;;;;;5074132;28;20745;-79
2022/07/08 01:46:10;;;;;;;3.53;1.73;;;;;;;;;;5074267;28;20188;-79
2022/07/08 01:48:37;;;;;;;3.57;1.50;;;;;;;;;;5092163;28;20206;-79
2022/07/08 01:51:03;;;;;;;2.43;1.30;;;;;;;;;;5074220;28;20214;-79
2022/07/08 01:53:29;;;;;;;5.33;1.63;;;;;;;;;;5090896;28;20224;-79
2022/07/08 01:55:55;;;;;;;8.00;2.00;;;;;;;;;;5074322;28;20207;-79
2022/07/08 01:58:21;;;;;;;3.10;1.40;;;;;;;;;;5090984;28;20549;-79
2022/07/08 02:00:47;;;;;;;3.83;1.50;;;;;;;;;;5090936;28;20195;-79
2022/07/08 02:03:13;;;;;;;4.37;1.60;;;;;;;;;;5073755;28;20196;-79
2022/07/08 02:05:39;;;;;;;5.17;1.70;;;;;;;;;;5090840;28;20191;-79
2022/07/08 02:08:05;;;;;;;3.43;1.60;;;;;;;;;;5074027;28;20192;-79
2022/07/08 02:12:18;;;;;;;3.10;1.43;;;;;;;;;;5074190;28;20215;-79
2022/07/08 02:13:18;;;;;;;4.83;1.70;;;;;;;;;;5091519;28;20237;-79
2022/07/08 02:15:45;;;;;;;3.27;1.53;;;;;;;;;;5090741;28;20173;-79
2022/07/08 02:18:11;;;;;;;4.60;1.50;;;;;;;;;;5073853;28;20706;-79
2022/07/08 02:20:37;;;;;;;3.20;1.50;;;;;;;;;;5090942;28;20181;-79
2022/07/08 02:23:03;;;;;;;4.93;1.50;;;;;;;;;;5090266;28;20199;-79
2022/07/08 02:25:29;;;;;;;3.60;1.53;;;;;;;;;;5073981;28;20230;-79
2022/07/08 02:27:55;;;;;;;3.07;1.60;;;;;;;;;;5077617;28;20180;-79
2022/07/08 02:30:21;;;;;;;4.30;1.60;;;;;;;;;;5094094;28;20207;-79
2022/07/08 02:32:47;;;;;;;3.40;1.57;;;;;;;;;;5077359;28;20173;-79
2022/07/08 02:35:13;;;;;;;4.63;1.63;;;;;;;;;;5077697;28;20183;-79
2022/07/08 02:37:39;;;;;;;3.40;1.50;;;;;;;;;;5077648;28;20176;-79
2022/07/08 02:40:05;;;;;;;4.20;1.50;;;;;;;;;;5077511;28;20208;-79
2022/07/08 02:42:31;;;;;;;3.80;1.43;;;;;;;;;;5077195;28;20180;-79
2022/07/08 02:44:57;;;;;;;4.10;1.70;;;;;;;;;;5077350;28;20208;-79
2022/07/08 02:47:23;;;;;;;4.83;1.50;;;;;;;;;;5094078;28;20581;-79
2022/07/08 02:49:49;;;;;;;2.97;1.70;;;;;;;;;;5094502;28;20176;-79
2022/07/08 02:52:15;;;;;;;3.87;1.87;;;;;;;;;;5093952;28;20674;-79
2022/07/08 02:54:41;;;;;;;4.17;1.70;;;;;;;;;;5093984;28;20199;-79
2022/07/08 02:57:07;;;;;;;4.63;1.40;;;;;;;;;;5077138;28;20638;-79
2022/07/08 02:59:33;;;;;;;4.67;1.70;;;;;;;;;;5077491;28;20207;-79
2022/07/08 03:01:59;;;;;;;4.63;1.50;;;;;;;;;;5093776;28;20212;-79
2022/07/08 03:04:25;;;;;;;3.73;1.30;;;;;;;;;;5077126;28;20238;-79
2022/07/08 03:06:51;;;;;;;3.70;1.50;;;;;;;;;;5093985;28;20187;-79
2022/07/08 03:09:17;;;;;;;2.73;1.30;;;;;;;;;;5077073;28;20180;-79
2022/07/08 03:11:43;;;;;;;6.27;1.70;;;;;;;;;;5076674;28;20216;-79
2022/07/08 03:14:09;;;;;;;4.43;1.30;;;;;;;;;;5089138;22;20297;-77
2022/07/08 03:16:35;;;;;;;5.33;1.67;;;;;;;;;;5073423;28;20177;-77
2022/07/08 03:19:01;;;;;;;3.50;2.00;;;;;;;;;;5056605;28;20247;-77
2022/07/08 03:21:27;;;;;;;7.10;1.67;;;;;;;;;;5073024;28;20566;-77
2022/07/08 03:23:53;;;;;;;4.57;1.60;;;;;;;;;;5056366;28;20228;-77
2022/07/08 03:26:19;;;;;;;3.67;1.40;;;;;;;;;;5073136;28;20647;-77
2022/07/08 03:28:45;;;;;;;4.93;1.70;;;;;;;;;;5056219;28;20185;-77
2022/07/08 03:31:11;;;;;;;6.17;1.70;;;;;;;;;;5072983;28;20201;-77
2022/07/08 03:33:38;;;;;;;3.97;1.70;;;;;;;;;;5072714;28;20683;-77
2022/07/08 03:36:06;;;;;;;6.27;1.37;;;;;;;;;;5073017;28;20180;-77
2022/07/08 03:38:32;;;;;;;7.27;1.80;;;;;;;;;;5073189;28;20210;-77
2022/07/08 03:43:42;;;;;;;4.17;1.50;;;;;;;;;;5074019;28;20314;-77
2022/07/08 03:46:08;;;;;;;4.17;1.43;;;;;;;;;;5072648;28;20189;-77
2022/07/08 03:48:34;;;;;;;4.80;1.60;;;;;;;;;;5056189;28;20555;-77
2022/07/08 03:51:00;;;;;;;4.20;1.70;;;;;;;;;;5055934;28;20663;-77
2022/07/08 03:53:26;;;;;;;5.90;1.97;;;;;;;;;;5055751;28;20251;-77
2022/07/08 03:55:54;;;;;;;4.57;1.60;;;;;;;;;;5055827;28;20271;-77
2022/07/08 03:58:20;;;;;;;6.03;1.90;;;;;;;;;;5072354;28;20175;-77
2022/07/08 04:00:46;;;;;;;7.27;1.87;;;;;;;;;;5073530;28;20326;-77
2022/07/08 04:03:12;;;;;;;4.60;1.57;;;;;;;;;;5071987;28;20189;-77
2022/07/08 04:05:38;;;;;;;3.80;1.60;;;;;;;;;;5055899;28;20177;-77
2022/07/08 04:08:04;;;;;;;4.60;1.60;;;;;;;;;;5072346;28;20177;-77
2022/07/08 04:10:31;;;;;;;6.23;1.90;;;;;;;;;;5072081;28;20621;-77
2022/07/08 04:12:57;;;;;;;4.07;1.60;;;;;;;;;;5055442;28;20177;-77
2022/07/08 04:15:23;;;;;;;4.00;1.77;;;;;;;;;;5073243;28;20205;-77
2022/07/08 04:17:49;;;;;;;4.00;1.53;;;;;;;;;;5072253;28;20238;-77
2022/07/08 04:20:15;;;;;;;2.87;1.70;;;;;;;;;;5072079;28;20180;-77
2022/07/08 04:22:41;;;;;;;3.70;1.40;;;;;;;;;;5055272;28;20176;-77
2022/07/08 04:25:07;;;;;;;7.07;1.47;;;;;;;;;;5071677;28;20193;-77
2022/07/08 04:27:33;;;;;;;2.83;1.43;;;;;;;;;;5071805;28;20267;-77
2022/07/08 04:29:59;;;;;;;4.30;1.60;;;;;;;;;;5055240;28;20231;-77
2022/07/08 04:32:25;;;;;;;4.03;1.50;;;;;;;;;;5054987;28;20177;-77
2022/07/08 04:34:51;;;;;;;4.10;1.70;;;;;;;;;;5072921;28;20197;-77
2022/07/08 04:37:18;;;;;;;3.80;1.60;;;;;;;;;;5055186;28;20210;-77
2022/07/08 04:39:44;;;;;;;3.80;1.80;;;;;;;;;;5071547;28;20180;-77
2022/07/08 04:42:10;;;;;;;2.30;1.50;;;;;;;;;;5071412;28;20234;-76
2022/07/08 04:44:36;;;;;;;2.13;1.50;;;;;;;;;;5055174;28;20231;-77
2022/07/08 04:47:02;;;;;;;4.37;1.70;;;;;;;;;;5054786;28;20592;-76
2022/07/08 04:49:28;;;;;;;5.93;1.40;;;;;;;;;;5054844;28;20639;-76
2022/07/08 04:51:54;;;;;;;6.37;2.10;;;;;;;;;;5054696;28;20262;-76
2022/07/08 04:54:20;;;;;;;3.40;1.70;;;;;;;;;;5071227;28;20701;-77
2022/07/08 04:56:46;;;;;;;2.73;1.57;;;;;;;;;;5054923;28;20216;-77
2022/07/08 04:59:12;;;;;;;2.60;1.77;;;;;;;;;;5071346;28;20230;-76
2022/07/08 05:01:38;;;;;;;3.37;1.67;;;;;;;;;;5071351;28;20181;-77
2022/07/08 05:04:04;;;;;;;6.07;2.00;;;;;;;;;;5054349;28;20203;-78
2022/07/08 05:06:30;;;;;;;5.10;1.70;;;;;;;;;;5071534;28;20188;-79
2022/07/08 05:08:56;;;;;;;6.00;1.67;;;;;;;;;;5071519;28;20537;-79
2022/07/08 05:11:22;;;;;;;4.70;1.90;;;;;;;;;;5054807;28;20211;-79
2022/07/08 05:13:48;;;;;;;4.20;1.60;;;;;;;;;;5070986;28;20215;-79
2022/07/08 05:16:14;;;;;;;5.77;1.63;;;;;;;;;;5054661;28;20177;-79
2022/07/08 05:18:41;;;;;;;4.70;1.73;;;;;;;;;;5071719;28;20208;-78
2022/07/08 05:21:07;;;;;;;3.43;1.67;;;;;;;;;;5054806;28;20181;-79
2022/07/08 05:23:33;;;;;;;4.63;1.63;;;;;;;;;;5054540;28;20201;-79
2022/07/08 05:25:59;;;;;;;4.73;1.73;;;;;;;;;;5054754;28;20272;-78
2022/07/08 05:28:25;;;;;;;4.53;1.67;;;;;;;;;;5054190;28;20246;-77
2022/07/08 05:30:51;;;;;;;3.67;1.50;;;;;;;;;;5054493;28;20673;-77
2022/07/08 05:33:17;;;;;;;4.20;1.40;;;;;;;;;;5070553;28;20635;-77
2022/07/08 05:35:43;;;;;;;4.17;1.70;;;;;;;;;;5054569;28;20173;-77
2022/07/08 05:38:09;;;;;;;4.60;1.50;;;;;;;;;;5054997;28;20177;-79
2022/07/08 05:40:35;;;;;;;3.30;1.60;;;;;;;;;;5055507;28;20264;-79
2022/07/08 05:43:01;;;;;;;4.13;1.57;;;;;;;;;;5055189;28;20185;-79
2022/07/08 05:45:27;;;;;;;7.47;1.80;;;;;;;;;;5055325;28;20257;-79
2022/07/08 05:47:53;;;;;;;5.30;1.60;;;;;;;;;;5055375;28;20176;-79
2022/07/08 05:50:19;;;;;;;4.27;1.77;;;;;;;;;;5072271;28;20570;-78
2022/07/08 05:52:45;;;;;;;3.57;1.60;;;;;;;;;;5071518;28;20185;-78
2022/07/08 05:55:11;;;;;;;7.07;1.90;;;;;;;;;;5071370;28;20195;-80
2022/07/08 05:57:37;;;;;;;4.97;1.60;;;;;;;;;;5072105;28;20169;-81
2022/07/08 06:00:03;;;;;;;7.30;2.20;;;;;;;;;;5073177;28;20169;-81
2022/07/08 06:02:30;;;;;;;5.33;2.00;;;;;;;;;;5075451;28;20176;-79
2022/07/08 06:04:56;;;;;;;5.73;1.73;;;;;;;;;;5057916;28;20251;-77
2022/07/08 06:07:21;;;;;;;4.43;1.53;;;;;;;;;;5057993;28;20185;-78
2022/07/08 06:09:48;;;;;;;5.73;1.47;;;;;;;;;;5074726;28;20173;-77
2022/07/08 06:12:14;;;;;;;9.03;1.70;;;;;;;;;;5074360;28;20243;-77
2022/07/08 06:14:39;;;;;;;5.60;1.83;;;;;;;;;;5074183;28;20213;-77
2022/07/08 06:17:05;;;;;;;4.40;1.60;;;;;;;;;;5074508;28;20177;-76
2022/07/08 06:19:31;;;;;;;3.10;1.47;;;;;;;;;;5057631;28;20181;-76
2022/07/08 06:21:57;;;;;;;4.90;1.50;;;;;;;;;;5073912;28;20173;-76
2022/07/08 06:24:23;;;;;;;4.30;1.50;;;;;;;;;;5074186;28;20208;-76
2022/07/08 06:26:49;;;;;;;3.77;1.67;;;;;;;;;;5057929;28;20181;-76
2022/07/08 06:29:15;;;;;;;1.80;1.10;;;;;;;;;;5073866;28;20230;-77
2022/07/08 06:31:41;;;;;;;4.30;1.37;;;;;;;;;;5057397;28;20219;-77
2022/07/08 06:34:07;;;;;;;4.50;1.50;;;;;;;;;;5073876;28;20200;-78
2022/07/08 06:36:33;;;;;;;3.40;1.60;;;;;;;;;;5073778;28;20650;-78
2022/07/08 06:39:00;;;;;;;3.57;1.40;;;;;;;;;;5057583;28;20173;-78
2022/07/08 06:41:26;;;;;;;3.67;1.30;;;;;;;;;;5074061;28;20215;-77
2022/07/08 06:43:52;;;;;;;5.13;1.33;;;;;;;;;;5073620;28;20200;-77
2022/07/08 06:46:18;;;;;;;5.53;1.60;;;;;;;;;;5073651;28;20223;-77
2022/07/08 06:48:44;;;;;;;3.07;1.30;;;;;;;;;;5073753;28;20185;-77
2022/07/08 06:51:11;;;;;;;4.20;1.30;;;;;;;;;;5073098;28;20211;-76
2022/07/08 06:56:21;;;;;;;4.37;1.40;;;;;;;;;;5074163;28;20224;-77
2022/07/08 06:58:47;;;;;;;4.57;1.40;;;;;;;;;;5073536;28;20200;-77
2022/07/08 07:01:13;;;;;;;5.30;1.43;;;;;;;;;;5073475;28;20173;-77
2022/07/08 07:03:39;;;;;;;4.37;1.80;;;;;;;;;;5056541;28;20215;-77
2022/07/08 07:06:05;;;;;;;3.33;1.33;;;;;;;;;;5056776;28;20235;-77
2022/07/08 07:08:31;;;;;;;4.53;1.53;;;;;;;;;;5073152;28;20204;-77
2022/07/08 07:10:57;;;;;;;2.67;1.20;;;;;;;;;;5072049;28;20211;-77
2022/07/08 07:13:23;;;;;;;3.70;1.50;;;;;;;;;;5043060;28;20209;-77
2022/07/08 07:15:49;;;;;;;3.50;1.70;;;;;;;;;;5035294;28;20178;-77
2022/07/08 07:18:15;;;;;;;3.07;1.10;;;;;;;;;;5036694;28;20185;-77
2022/07/08 07:20:41;;;;;;;3.57;1.40;;;;;;;;;;5036066;28;20401;-77
2022/07/08 07:23:07;;;;;;;2.90;1.47;;;;;;;;;;5036241;28;20216;-77
2022/07/08 07:25:33;;;;;;;4.90;1.53;;;;;;;;;;5036546;28;20217;-76
2022/07/08 07:27:59;;;;;;;2.77;1.30;;;;;;;;;;5035582;28;20178;-77
2022/07/08 07:30:26;;;;;;;3.73;1.40;;;;;;;;;;5051730;28;20561;-76
2022/07/08 07:32:53;;;;;;;4.03;1.57;;;;;;;;;;5052600;28;20177;-77
2022/07/08 07:35:19;;;;;;;3.47;1.40;;;;;;;;;;5052898;28;20190;-77
2022/07/08 07:37:45;;;;;;;3.87;1.40;;;;;;;;;;5053034;28;20180;-77
2022/07/08 07:40:11;;;;;;;4.97;1.30;;;;;;;;;;5054159;28;20240;-79
2022/07/08 07:42:38;;;;;;;5.93;1.50;;;;;;;;;;5052740;28;20185;-78
2022/07/08 07:45:04;;;;;;;5.57;1.60;;;;;;;;;;5052679;28;20193;-77
2022/07/08 07:47:30;;;;;;;5.63;1.70;;;;;;;;;;5036069;28;20178;-78
2022/07/08 07:49:56;;;;;;;3.70;1.23;;;;;;;;;;5053001;28;20174;-78
2022/07/08 07:52:23;;;;;;;5.93;1.57;;;;;;;;;;5054022;28;20211;-81
2022/07/08 07:54:49;;;;;;;5.33;1.60;;;;;;;;;;5052585;28;20229;-78
2022/07/08 07:57:15;;;;;;;2.97;1.57;;;;;;;;;;5052383;28;20197;-78
2022/07/08 07:59:41;;;;;;;5.33;1.40;;;;;;;;;;5052497;28;20178;-77
2022/07/08 08:02:07;;;;;;;3.53;1.40;;;;;;;;;;5053655;28;20687;-79
2022/07/08 08:04:33;;;;;;;3.27;1.40;;;;;;;;;;5052494;28;20197;-79
2022/07/08 08:06:59;;;;;;;3.47;1.47;;;;;;;;;;5035940;28;20666;-79
2022/07/08 08:09:25;;;;;;;6.57;1.60;;;;;;;;;;5035668;28;20208;-79
2022/07/08 08:11:51;;;;;;;4.73;1.60;;;;;;;;;;5052343;28;20206;-79
2022/07/08 08:14:17;;;;;;;3.17;1.50;;;;;;;;;;5052085;28;20216;-79
2022/07/08 08:16:43;;;;;;;4.40;1.37;;;;;;;;;;5035668;28;20182;-79
2022/07/08 08:19:09;;;;;;;3.23;1.43;;;;;;;;;;5035493;28;20205;-79
2022/07/08 08:21:36;;;;;;;3.97;1.47;;;;;;;;;;5052315;28;20185;-78
2022/07/08 08:24:02;;;;;;;4.07;1.50;;;;;;;;;;5052635;28;20205;-79
2022/07/08 08:26:28;;;;;;;7.37;1.80;;;;;;;;;;5053244;28;20223;-79
2022/07/08 08:28:54;;;;;;;4.43;1.60;;;;;;;;;;5036416;28;20624;-80
2022/07/08 08:31:20;;;;;;;4.30;1.90;;;;;;;;;;5036249;28;20214;-80
2022/07/08 08:33:46;;;;;;;4.87;1.60;;;;;;;;;;5052202;28;20196;-79
2022/07/08 08:36:12;;;;;;;2.33;1.43;;;;;;;;;;5036553;28;20181;-80
2022/07/08 08:38:38;;;;;;;3.87;1.57;;;;;;;;;;5036316;28;20173;-80
2022/07/08 08:41:04;;;;;;;2.83;1.60;;;;;;;;;;5036253;28;20182;-79
2022/07/08 08:43:30;;;;;;;4.63;1.70;;;;;;;;;;5036013;28;20212;-79
2022/07/08 08:45:56;;;;;;;4.77;1.50;;;;;;;;;;5052440;28;20174;-79
2022/07/08 08:48:23;;;;;;;4.60;1.63;;;;;;;;;;5054034;28;20177;-79
2022/07/08 08:50:56;;;;;;;4.20;1.57;;;;;;;;;;5035609;28;20733;-79
2022/07/08 08:53:37;;;;;;;6.07;1.70;;;;;;;;;;5051941;28;20708;-79
2022/07/08 08:56:03;;;;;;;3.50;1.60;;;;;;;;;;5052485;28;20239;-79
2022/07/08 08:58:29;;;;;;;5.57;1.50;;;;;;;;;;5036453;28;20207;-79
2022/07/08 09:00:55;;;;;;;2.93;1.50;;;;;;;;;;5052393;28;20188;-80
2022/07/08 09:03:21;;;;;;;5.10;1.53;;;;;;;;;;5036615;28;20201;-80
2022/07/08 09:05:49;;;;;;;3.33;1.40;;;;;;;;;;5054274;28;20224;-80
2022/07/08 09:08:15;;;;;;;3.73;1.30;;;;;;;;;;5052410;28;20177;-80
2022/07/08 09:10:41;;;;;;;3.27;1.30;;;;;;;;;;5036035;28;20664;-80
2022/07/08 09:13:15;;;;;;;3.73;1.60;;;;;;;;;;5052317;28;20174;-80
2022/07/08 09:15:46;;;;;;;7.87;1.30;;;;;;;;;;5124781;23;20232;-77
2022/07/08 09:18:15;;;;;;;6.17;1.80;;;;;;;;;;5074512;28;20177;-77
2022/07/08 09:20:43;;;;;;;4.47;1.67;;;;;;;;;;5091050;28;20272;-77
2022/07/08 09:23:10;;;;;;;4.60;1.80;;;;;;;;;;5090955;28;20173;-77
2022/07/08 09:25:36;;;;;;;2.97;1.30;;;;;;;;;;5091255;28;20198;-76
2022/07/08 09:28:01;;;;;;;3.17;1.50;;;;;;;;;;5074483;28;20267;-75
2022/07/08 09:30:31;;;;;;;3.97;1.37;;;;;;;;;;5074273;28;20180;-75
2022/07/08 09:32:58;;;;;;;4.80;1.43;;;;;;;;;;5090943;28;20199;-75
2022/07/08 09:35:35;;;;;;;3.30;1.30;;;;;;;;;;5073412;28;20257;-75
2022/07/08 09:38:05;;;;;;;2.23;1.30;;;;;;;;;;5091538;28;20197;-75
2022/07/08 09:40:31;;;;;;;5.10;1.40;;;;;;;;;;5090908;28;20180;-75
2022/07/08 09:42:58;;;;;;;4.63;1.70;;;;;;;;;;5092169;28;20172;-75
2022/07/08 09:45:28;;;;;;;3.33;1.40;;;;;;;;;;5090907;28;20199;-75
2022/07/08 09:48:00;;;;;;;3.83;1.63;;;;;;;;;;5090995;28;20200;-77
2022/07/08 09:50:40;;;;;;;3.97;1.43;;;;;;;;;;5092644;28;20149;-77
2022/07/08 09:53:32;;;;;;;2.67;1.40;;;;;;;;;;5092415;28;20179;-77
2022/07/08 09:55:58;;;;;;;3.77;1.80;;;;;;;;;;5089208;28;20287;-77
2022/07/08 09:58:26;;;;;;;6.53;1.30;;;;;;;;;;5091757;28;20172;-79
2022/07/08 10:00:53;;;;;;;2.83;1.50;;;;;;;;;;5091568;28;20649;-77
2022/07/08 10:03:19;;;;;;;4.93;1.83;;;;;;;;;;5074906;28;20642;-78
2022/07/08 10:05:46;;;;;;;3.57;1.67;;;;;;;;;;5091407;28;20588;-78
2022/07/08 10:08:12;;;;;;;3.83;1.97;;;;;;;;;;5074871;28;20184;-77
2022/07/08 10:10:39;;;;;;;4.23;1.70;;;;;;;;;;5091602;28;20193;-77
2022/07/08 10:13:05;;;;;;;2.10;1.30;;;;;;;;;;5074801;28;20188;-80
2022/07/08 10:15:34;;;;;;;5.50;1.60;;;;;;;;;;5074835;28;20208;-78
2022/07/08 10:18:19;;;;;;;6.23;1.73;;;;;;;;;;5091125;28;20175;-77
2022/07/08 10:20:48;;;;;;;3.93;1.50;;;;;;;;;;5092386;28;20177;-77
2022/07/08 10:23:22;;;;;;;3.53;1.37;;;;;;;;;;5092258;28;20204;-78
2022/07/08 10:25:49;;;;;;;3.13;1.60;;;;;;;;;;5092840;28;20265;-78
2022/07/08 10:28:15;;;;;;;3.57;1.30;;;;;;;;;;5091885;28;20237;-79
2022/07/08 10:30:49;;;;;;;2.93;1.40;;;;;;;;;;5091454;28;20192;-82
2022/07/08 10:33:38;;;;;;;4.53;1.63;;;;;;;;;;5074826;28;20182;-78
2022/07/08 10:36:04;;;;;;;6.57;2.67;;;;;;;;;;5092482;28;20172;-79
2022/07/08 10:38:40;;;;;;;3.37;1.40;;;;;;;;;;5092552;28;20172;-78
2022/07/08 10:41:10;;;;;;;16.17;6.67;;;;;;;;;;5074714;28;20185;-78
2022/07/08 10:43:36;;;;;;;3.67;1.50;;;;;;;;;;5090814;28;20180;-78
2022/07/08 10:46:14;;;;;;;5.30;2.20;;;;;;;;;;5090954;28;20206;-79
2022/07/08 10:48:40;;;;;;;3.40;1.30;;;;;;;;;;5094432;28;20220;-78
2022/07/08 10:51:24;;;;;;;4.35;1.38;;;;;;;;;;5094453;28;20708;-77
2022/07/08 10:53:55;;;;;;;4.10;1.30;;;;;;;;;;5094306;28;20200;-77
2022/07/08 10:56:39;;;;;;;3.45;1.90;;;;;;;;;;5094665;28;20229;-78
2022/07/08 10:59:18;;;;;;;2.83;1.55;;;;;;;;;;5094630;28;20195;-78
2022/07/08 11:01:51;;;;;;;2.35;1.30;;;;;;;;;;5077707;28;20184;-78
2022/07/08 11:04:22;;;;;;;3.03;1.48;;;;;;;;;;5094667;28;20670;-78
2022/07/08 11:06:48;;;;;;;3.72;1.50;;;;;;;;;;5095508;28;20171;-79
2022/07/08 11:09:22;;;;;;;4.25;1.83;;;;;;;;;;5077504;28;20191;-81
2022/07/08 11:11:48;;;;;;;4.47;1.73;;;;;;;;;;5094365;28;20212;-78
2022/07/08 11:14:14;;;;;;;5.32;1.45;;;;;;;;;;5093999;28;20688;-77
2022/07/08 11:16:41;;;;;;;3.05;1.73;;;;;;;;;;5093973;28;20305;-77
2022/07/08 11:19:07;;;;;;;3.70;1.33;;;;;;;;;;5094285;28;20195;-78
2022/07/08 11:21:34;;;;;;;2.55;1.25;;;;;;;;;;5093932;28;20590;-77
2022/07/08 11:24:00;;;;;;;2.83;1.30;;;;;;;;;;5093682;28;20203;-77
2022/07/08 11:26:26;;;;;;;5.30;1.77;;;;;;;;;;5093675;28;20203;-78
2022/07/08 11:28:52;;;;;;;5.00;1.65;;;;;;;;;;5093907;28;20172;-78
2022/07/08 11:31:28;;;;;;;3.20;1.40;;;;;;;;;;5093848;28;20252;-78
2022/07/08 11:33:54;;;;;;;3.65;1.40;;;;;;;;;;5076773;28;20214;-78
2022/07/08 11:36:21;;;;;;;3.72;1.50;;;;;;;;;;5094810;28;20168;-78
2022/07/08 11:38:48;;;;;;;3.47;1.58;;;;;;;;;;5093695;28;20211;-78
2022/07/08 11:41:14;;;;;;;5.18;1.75;;;;;;;;;;5093653;28;20239;-78
2022/07/08 11:43:41;;;;;;;3.05;1.27;;;;;;;;;;5094374;28;20196;-78
2022/07/08 11:46:21;;;;;;;4.10;1.67;;;;;;;;;;5076558;28;20184;-77
2022/07/08 11:48:47;;;;;;;3.20;1.40;;;;;;;;;;5093635;28;20190;-77
2022/07/08 11:51:14;;;;;;;3.90;1.50;;;;;;;;;;5093608;28;20204;-77
2022/07/08 11:53:40;;;;;;;4.68;1.52;;;;;;;;;;5076514;28;20188;-77
2022/07/08 11:56:06;;;;;;;3.92;1.50;;;;;;;;;;5093261;28;20164;-78
2022/07/08 11:58:32;;;;;;;3.05;1.60;;;;;;;;;;5075586;28;20756;-78
2022/07/08 12:00:58;;;;;;;4.28;1.50;;;;;;;;;;5093051;28;20263;-77
2022/07/08 12:03:26;;;;;;;3.38;1.58;;;;;;;;;;5076450;28;20173;-77
2022/07/08 12:05:52;;;;;;;3.88;1.50;;;;;;;;;;5093005;28;20192;-77
2022/07/08 12:08:18;;;;;;;3.35;1.60;;;;;;;;;;5076470;28;20183;-77
2022/07/08 12:10:45;;;;;;;4.32;1.42;;;;;;;;;;5076435;28;20228;-77
2022/07/08 12:13:11;;;;;;;4.07;1.70;;;;;;;;;;5076396;28;20192;-77
2022/07/08 12:15:38;;;;;;;2.55;1.30;;;;;;;;;;5092910;28;20233;-77
2022/07/08 12:18:04;;;;;;;2.35;1.30;;;;;;;;;;5092914;28;20164;-78
2022/07/08 12:20:31;;;;;;;4.50;1.40;;;;;;;;;;5076179;28;20233;-77
2022/07/08 12:22:57;;;;;;;4.55;1.67;;;;;;;;;;5076132;28;20192;-77
2022/07/08 12:25:23;;;;;;;2.28;1.33;;;;;;;;;;5075873;28;20192;-77
2022/07/08 12:27:55;;;;;;;4.07;1.30;;;;;;;;;;5075860;28;20172;-77
2022/07/08 12:30:25;;;;;;;4.32;1.58;;;;;;;;;;5092758;28;20208;-77
2022/07/08 12:32:51;;;;;;;5.18;1.70;;;;;;;;;;5092402;28;20165;-78
2022/07/08 12:35:17;;;;;;;4.45;1.70;;;;;;;;;;5075932;28;20271;-77
2022/07/08 12:37:43;;;;;;;2.72;1.30;;;;;;;;;;5092467;28;20698;-77
2022/07/08 12:40:16;;;;;;;2.35;1.42;;;;;;;;;;5075880;28;20176;-78
2022/07/08 12:42:42;;;;;;;4.38;1.55;;;;;;;;;;5075364;28;20632;-78
2022/07/08 12:45:15;;;;;;;3.70;1.17;;;;;;;;;;5092460;28;20188;-78
2022/07/08 12:47:41;;;;;;;2.72;1.20;;;;;;;;;;5075759;28;20176;-77
2022/07/08 12:50:07;;;;;;;2.65;1.40;;;;;;;;;;5093470;28;20200;-78
2022/07/08 12:55:38;;;;;;;2.83;1.40;;;;;;;;;;5093724;28;20688;-77
2022/07/08 12:58:04;;;;;;;3.60;1.50;;;;;;;;;;5092459;28;20179;-78
2022/07/08 13:00:30;;;;;;;3.85;1.45;;;;;;;;;;5092240;28;20243;-78
2022/07/08 13:02:56;;;;;;;2.97;1.50;;;;;;;;;;5091993;28;20164;-77
2022/07/08 13:05:22;;;;;;;4.18;1.50;;;;;;;;;;5092266;28;20241;-78
2022/07/08 13:07:48;;;;;;;3.42;1.40;;;;;;;;;;5075182;28;20634;-78
2022/07/08 13:10:14;;;;;;;4.82;1.30;;;;;;;;;;5075059;28;20176;-78
2022/07/08 13:12:40;;;;;;;3.03;1.35;;;;;;;;;;5091507;28;20641;-78
2022/07/08 13:15:06;;;;;;;3.70;1.40;;;;;;;;;;5091850;28;20203;-78
2022/07/08 13:17:32;;;;;;;3.45;1.42;;;;;;;;;;5075403;28;20176;-78
2022/07/08 13:19:58;;;;;;;2.50;1.50;;;;;;;;;;5091836;28;20206;-78
2022/07/08 13:22:24;;;;;;;3.47;1.38;;;;;;;;;;5091803;28;20175;-78
2022/07/08 13:24:50;;;;;;;4.70;1.35;;;;;;;;;;5074989;28;20199;-78
2022/07/08 13:27:16;;;;;;;2.45;1.20;;;;;;;;;;5091745;28;20176;-78
2022/07/08 13:29:42;;;;;;;4.45;1.40;;;;;;;;;;5091556;28;20177;-78
2022/07/08 13:32:08;;;;;;;4.40;1.35;;;;;;;;;;5074893;28;20204;-77
2022/07/08 13:34:34;;;;;;;2.58;1.40;;;;;;;;;;5091511;28;20242;-77
2022/07/08 13:37:00;;;;;;;2.58;1.30;;;;;;;;;;5091761;28;20597;-77
2022/07/08 13:39:26;;;;;;;3.15;1.35;;;;;;;;;;5074783;28;20172;-78
2022/07/08 13:41:52;;;;;;;2.33;1.40;;;;;;;;;;5091585;28;20183;-78
2022/07/08 13:44:18;;;;;;;3.60;1.38;;;;;;;;;;5091410;28;20204;-78
2022/07/08 13:46:44;;;;;;;3.35;1.30;;;;;;;;;;5091824;28;20176;-78
2022/07/08 13:49:10;;;;;;;4.38;1.50;;;;;;;;;;5091395;28;20177;-78
2022/07/08 13:51:36;;;;;;;3.55;1.25;;;;;;;;;;5091303;28;20204;-78
2022/07/08 13:54:02;;;;;;;2.50;1.33;;;;;;;;;;5074359;28;20196;-78
2022/07/08 13:56:28;;;;;;;2.72;1.25;;;;;;;;;;5074525;28;20667;-78
2022/07/08 13:58:54;;;;;;;2.90;1.23;;;;;;;;;;5074895;28;20177;-78
2022/07/08 14:01:20;;;;;;;1.25;1.10;;;;;;;;;;5091492;28;20183;-78
2022/07/08 14:03:46;;;;;;;3.97;1.30;;;;;;;;;;5074326;28;20661;-76
2022/07/08 14:06:13;;;;;;;2.95;1.23;;;;;;;;;;5091608;28;20176;-77
2022/07/08 14:08:39;;;;;;;3.63;1.30;;;;;;;;;;5091365;28;20188;-76
2022/07/08 14:11:05;;;;;;;2.08;1.20;;;;;;;;;;5092142;28;20200;-77
2022/07/08 14:13:32;;;;;;;2.97;1.13;;;;;;;;;;5074356;28;20548;-77
2022/07/08 14:16:00;;;;;;;2.20;1.13;;;;;;;;;;5090986;28;20200;-78
2022/07/08 14:18:26;;;;;;;2.33;1.20;;;;;;;;;;5074676;28;20172;-78
2022/07/08 14:20:52;;;;;;;3.50;1.20;;;;;;;;;;5092352;28;20161;-78
2022/07/08 14:23:18;;;;;;;2.47;1.13;;;;;;;;;;5077415;28;20176;-77
2022/07/08 14:25:46;;;;;;;2.88;1.20;;;;;;;;;;5096065;28;20220;-77
2022/07/08 14:28:12;;;;;;;2.97;1.20;;;;;;;;;;5078289;28;20184;-77
2022/07/08 14:30:38;;;;;;;1.88;1.10;;;;;;;;;;5095990;28;20542;-77
2022/07/08 14:33:04;;;;;;;1.77;1.00;;;;;;;;;;5077804;28;20176;-77
2022/07/08 14:35:31;;;;;;;1.83;1.10;;;;;;;;;;5094623;28;20181;-77
2022/07/08 14:37:59;;;;;;;1.60;1.10;;;;;;;;;;5095925;28;20165;-77
2022/07/08 14:40:25;;;;;;;1.80;1.10;;;;;;;;;;5078485;28;20187;-77
2022/07/08 14:42:51;;;;;;;3.05;1.17;;;;;;;;;;5094720;28;20169;-77
2022/07/08 14:45:17;;;;;;;2.53;1.17;;;;;;;;;;5094716;28;20192;-77
2022/07/08 14:47:43;;;;;;;2.67;1.10;;;;;;;;;;5077942;28;20207;-79
2022/07/08 14:50:09;;;;;;;1.10;0.93;;;;;;;;;;5077675;28;20261;-77